Time;durP1;ratioP1;P1;durP2;ratioP2;P2;SDS_P1;SDS_P2;PMS_P1;PMS_P2;Temp;Humidity;BMP_temperature;BMP_pressure;BME280_temperature;BME280_humidity;BME280_pressure;Samples;Min_cycle;Max_cycle;Signal;HPM_P1;HPM_P2
2022/04/14 00:00:14;;;;;;;14.13;11.45;;;10.80;99.90;;;;;;5064917;28;20390;-43
2022/04/14 00:02:40;;;;;;;18.98;11.90;;;10.80;99.90;;;;;;5067668;28;20490;-42
2022/04/14 00:05:07;;;;;;;18.88;11.50;;;10.70;99.90;;;;;;5072144;28;20044;-41
2022/04/14 00:07:33;;;;;;;14.65;11.57;;;10.70;99.90;;;;;;5076912;28;20052;-41
2022/04/14 00:09:58;;;;;;;15.85;12.05;;;10.70;99.90;;;;;;5078471;28;20052;-42
2022/04/14 00:12:24;;;;;;;15.60;11.70;;;10.60;99.90;;;;;;5079706;28;20185;-43
2022/04/14 00:14:50;;;;;;;15.82;11.65;;;10.60;99.90;;;;;;5054261;28;20057;-44
2022/04/14 00:17:15;;;;;;;17.55;11.80;;;10.50;99.90;;;;;;5077470;28;20044;-42
2022/04/14 00:19:42;;;;;;;18.27;12.25;;;10.50;99.90;;;;;;5080999;28;20521;-41
2022/04/14 00:22:08;;;;;;;15.20;12.18;;;10.40;99.90;;;;;;5073660;28;20041;-42
2022/04/14 00:24:34;;;;;;;15.75;12.98;;;10.40;99.90;;;;;;5072653;28;20056;-41
2022/04/14 00:26:59;;;;;;;17.15;12.30;;;10.30;99.90;;;;;;5060973;28;20052;-41
2022/04/14 00:29:25;;;;;;;14.90;11.35;;;10.20;99.90;;;;;;5080280;28;20036;-41
2022/04/14 00:31:51;;;;;;;14.60;12.18;;;10.20;99.90;;;;;;5044939;28;20044;-41
2022/04/14 00:34:17;;;;;;;15.50;12.27;;;10.20;99.90;;;;;;5062796;28;20052;-41
2022/04/14 00:36:42;;;;;;;14.95;12.63;;;10.20;99.90;;;;;;5080090;28;20063;-41
2022/04/14 00:39:09;;;;;;;14.13;12.25;;;10.10;99.90;;;;;;5082916;28;20067;-43
2022/04/14 00:41:37;;;;;;;15.60;13.38;;;10.10;99.90;;;;;;5081063;28;20074;-41
2022/04/14 00:44:03;;;;;;;17.25;12.75;;;10.10;99.90;;;;;;5080906;28;20587;-42
2022/04/14 00:46:29;;;;;;;14.95;12.75;;;10.00;99.90;;;;;;5059254;28;20105;-41
2022/04/14 00:48:56;;;;;;;16.30;13.05;;;10.00;99.90;;;;;;5073142;28;20052;-41
2022/04/14 00:51:22;;;;;;;18.33;13.68;;;10.00;99.90;;;;;;5079931;28;20512;-41
2022/04/14 00:53:47;;;;;;;14.73;13.20;;;9.90;99.90;;;;;;5079152;28;20048;-42
2022/04/14 00:56:13;;;;;;;15.55;13.40;;;9.90;99.90;;;;;;5061732;28;20056;-41
2022/04/14 00:58:41;;;;;;;19.80;13.77;;;9.90;99.90;;;;;;5072905;28;20043;-41
2022/04/14 01:01:07;;;;;;;16.98;13.45;;;9.80;99.90;;;;;;5079176;28;20052;-41
2022/04/14 01:03:36;;;;;;;17.10;12.95;;;9.90;99.90;;;;;;5061411;28;20090;-41
2022/04/14 01:06:03;;;;;;;18.13;13.18;;;9.80;99.90;;;;;;5072613;28;20119;-42
2022/04/14 01:08:32;;;;;;;16.65;13.63;;;9.80;99.90;;;;;;5076287;28;20084;-42
2022/04/14 01:10:59;;;;;;;17.17;13.90;;;9.80;99.90;;;;;;5081451;28;20055;-43
2022/04/14 01:13:25;;;;;;;13.73;12.00;;;9.70;99.90;;;;;;5066690;28;20052;-41
2022/04/14 01:15:58;;;;;;;17.27;13.80;;;9.70;99.90;;;;;;5081360;28;20055;-42
2022/04/14 01:18:24;;;;;;;17.20;14.02;;;9.70;99.90;;;;;;5062702;28;20102;-41
2022/04/14 01:20:50;;;;;;;16.60;13.73;;;9.60;99.90;;;;;;5060134;28;20062;-42
2022/04/14 01:23:20;;;;;;;16.35;13.40;;;9.60;99.90;;;;;;5079976;28;20097;-44
2022/04/14 01:25:46;;;;;;;17.63;13.48;;;9.60;99.90;;;;;;5080918;28;20086;-42
2022/04/14 01:28:12;;;;;;;17.85;14.02;;;9.60;99.90;;;;;;5079713;28;20124;-41
2022/04/14 01:30:37;;;;;;;19.23;15.27;;;9.60;99.90;;;;;;5079913;28;20050;-43
2022/04/14 01:33:04;;;;;;;20.48;14.85;;;9.50;99.90;;;;;;5072284;28;20123;-42
2022/04/14 01:35:29;;;;;;;19.70;15.48;;;9.50;99.90;;;;;;5059792;28;20434;-42
2022/04/14 01:37:55;;;;;;;22.70;16.77;;;9.50;99.90;;;;;;5082094;28;20582;-41
2022/04/14 01:40:21;;;;;;;21.83;16.98;;;9.50;99.90;;;;;;5081262;28;20047;-42
2022/04/14 01:42:47;;;;;;;23.27;17.42;;;9.50;99.90;;;;;;5061441;28;20052;-42
2022/04/14 01:45:13;;;;;;;22.70;17.00;;;9.50;99.90;;;;;;5058930;28;20214;-41
2022/04/14 01:47:40;;;;;;;21.88;17.00;;;9.50;99.90;;;;;;5072163;28;20055;-41
2022/04/14 01:50:07;;;;;;;19.95;15.93;;;9.50;99.90;;;;;;5077574;28;20134;-43
2022/04/14 01:52:34;;;;;;;20.88;17.02;;;9.40;99.90;;;;;;5061275;28;20063;-41
2022/04/14 01:54:59;;;;;;;21.45;15.95;;;9.40;99.90;;;;;;5076436;28;20052;-41
2022/04/14 01:57:25;;;;;;;20.60;17.85;;;9.30;99.90;;;;;;5059816;28;20052;-43
2022/04/14 01:59:51;;;;;;;20.50;16.77;;;9.30;99.90;;;;;;5082236;28;20051;-41
2022/04/14 02:02:17;;;;;;;22.27;17.70;;;9.20;99.90;;;;;;5080189;28;20052;-41
2022/04/14 02:04:42;;;;;;;21.83;16.88;;;9.20;99.90;;;;;;5081529;28;20401;-42
2022/04/14 02:07:09;;;;;;;24.67;17.88;;;9.10;99.90;;;;;;5081224;28;20052;-41
2022/04/14 02:09:36;;;;;;;25.77;20.73;;;9.10;99.90;;;;;;5062786;28;20609;-42
2022/04/14 02:12:04;;;;;;;25.67;19.52;;;9.10;99.90;;;;;;5080173;28;20563;-40
2022/04/14 02:14:30;;;;;;;25.55;22.35;;;9.10;99.90;;;;;;5081184;28;20051;-41
2022/04/14 02:16:55;;;;;;;28.63;22.42;;;9.10;99.90;;;;;;5059969;28;20470;-41
2022/04/14 02:19:21;;;;;;;26.35;23.55;;;9.00;99.90;;;;;;5082000;28;20140;-41
2022/04/14 02:21:47;;;;;;;31.08;23.38;;;9.00;99.90;;;;;;5062352;28;20056;-41
2022/04/14 02:24:13;;;;;;;28.40;23.33;;;9.00;99.90;;;;;;5081368;28;20483;-42
2022/04/14 02:26:38;;;;;;;31.73;25.33;;;9.10;99.90;;;;;;5080976;28;20055;-42
2022/04/14 02:29:07;;;;;;;32.22;27.75;;;9.00;99.90;;;;;;5061594;28;20048;-41
2022/04/14 02:31:33;;;;;;;39.25;27.33;;;9.00;99.90;;;;;;5080340;28;20056;-43
2022/04/14 02:33:58;;;;;;;35.28;29.40;;;9.00;99.90;;;;;;5062478;28;20075;-41
2022/04/14 02:36:24;;;;;;;35.65;27.80;;;8.90;99.90;;;;;;5081724;28;20059;-41
2022/04/14 02:38:50;;;;;;;38.92;28.45;;;8.90;99.90;;;;;;5081723;28;20556;-42
2022/04/14 02:41:16;;;;;;;31.88;27.13;;;8.90;99.90;;;;;;5062776;28;20044;-40
2022/04/14 02:43:41;;;;;;;34.60;28.45;;;8.90;99.90;;;;;;5083023;28;20055;-41
2022/04/14 02:46:07;;;;;;;34.17;28.05;;;8.90;99.90;;;;;;5057947;28;20148;-42
2022/04/14 02:48:33;;;;;;;35.13;26.42;;;8.90;99.90;;;;;;5080975;28;20141;-43
2022/04/14 02:50:59;;;;;;;35.17;26.10;;;8.80;99.90;;;;;;5033587;28;20802;-41
2022/04/14 02:53:26;;;;;;;31.45;24.98;;;8.70;99.90;;;;;;5064539;28;20545;-41
2022/04/14 02:55:52;;;;;;;29.33;25.45;;;8.70;99.90;;;;;;5059079;28;20635;-41
2022/04/14 02:58:19;;;;;;;27.02;24.10;;;8.60;99.90;;;;;;5080740;28;20050;-41
2022/04/14 03:00:44;;;;;;;34.58;27.88;;;8.50;99.90;;;;;;5079554;28;20056;-41
2022/04/14 03:03:10;;;;;;;30.70;24.65;;;8.40;99.90;;;;;;5080104;28;20099;-41
2022/04/14 03:05:38;;;;;;;30.90;24.55;;;8.50;99.90;;;;;;5080295;28;20055;-43
2022/04/14 03:08:04;;;;;;;33.22;26.70;;;8.40;99.90;;;;;;5077947;28;20064;-41
2022/04/14 03:10:29;;;;;;;34.83;27.77;;;8.50;99.90;;;;;;5076853;28;20580;-41
2022/04/14 03:12:57;;;;;;;34.95;27.85;;;8.40;99.90;;;;;;5070907;28;20043;-42
2022/04/14 03:15:23;;;;;;;40.08;30.25;;;8.40;99.90;;;;;;5079278;28;20569;-40
2022/04/14 03:17:50;;;;;;;35.67;29.60;;;8.40;99.90;;;;;;5079650;28;20130;-41
2022/04/14 03:20:16;;;;;;;40.15;32.22;;;8.40;99.90;;;;;;5080285;28;20131;-41
2022/04/14 03:22:42;;;;;;;39.17;30.88;;;8.40;99.90;;;;;;5078391;28;20044;-41
2022/04/14 03:25:10;;;;;;;34.20;28.60;;;8.40;99.90;;;;;;5080064;28;20402;-40
2022/04/14 03:27:39;;;;;;;34.22;28.15;;;8.30;99.90;;;;;;5079014;28;20055;-41
2022/04/14 03:30:06;;;;;;;42.88;31.65;;;8.40;99.90;;;;;;5079808;28;20506;-41
2022/04/14 03:32:32;;;;;;;36.13;30.52;;;8.40;99.90;;;;;;5079364;28;20043;-41
2022/04/14 03:35:03;;;;;;;34.75;28.45;;;8.30;99.90;;;;;;5079597;28;20570;-40
2022/04/14 03:37:29;;;;;;;33.22;27.67;;;8.30;99.90;;;;;;5061765;28;20048;-41
2022/04/14 03:39:57;;;;;;;36.90;28.70;;;8.20;99.90;;;;;;5071913;28;20040;-41
2022/04/14 03:42:23;;;;;;;33.63;27.77;;;8.20;99.90;;;;;;5079017;28;20101;-41
2022/04/14 03:44:49;;;;;;;36.28;27.95;;;8.20;99.90;;;;;;5071926;28;20077;-41
2022/04/14 03:47:14;;;;;;;40.42;31.92;;;8.20;99.90;;;;;;5053466;28;20374;-41
2022/04/14 03:49:40;;;;;;;37.65;30.17;;;8.20;99.90;;;;;;5074149;28;20047;-42
2022/04/14 03:52:06;;;;;;;46.38;31.08;;;8.20;99.90;;;;;;5078864;28;20573;-40
2022/04/14 03:54:32;;;;;;;33.15;28.13;;;8.20;99.90;;;;;;5061787;28;20047;-41
2022/04/14 03:56:57;;;;;;;37.33;29.98;;;8.20;99.90;;;;;;5079815;28;20410;-41
2022/04/14 03:59:23;;;;;;;41.50;32.42;;;8.20;99.90;;;;;;5073171;28;20490;-41
2022/04/14 04:01:49;;;;;;;46.03;34.33;;;8.10;99.90;;;;;;5082166;28;20085;-41
2022/04/14 04:04:15;;;;;;;40.90;31.75;;;8.10;99.90;;;;;;5036958;28;20049;-41
2022/04/14 04:06:40;;;;;;;38.83;30.33;;;8.10;99.90;;;;;;5080101;28;20058;-43
2022/04/14 04:09:06;;;;;;;41.33;31.73;;;8.10;99.90;;;;;;5049941;28;20084;-42
2022/04/14 04:11:32;;;;;;;42.08;32.97;;;8.10;99.90;;;;;;5061941;28;20051;-41
2022/04/14 04:13:58;;;;;;;38.30;32.40;;;8.10;99.90;;;;;;5064475;28;20048;-41
2022/04/14 04:16:23;;;;;;;38.28;30.80;;;8.10;99.90;;;;;;5060569;28;20467;-41
2022/04/14 04:18:49;;;;;;;42.78;31.00;;;8.10;99.90;;;;;;5058990;28;20036;-41
2022/04/14 04:21:15;;;;;;;41.92;33.47;;;8.10;99.90;;;;;;5067264;28;20055;-40
2022/04/14 04:23:40;;;;;;;43.78;31.98;;;8.10;99.90;;;;;;5040913;28;20502;-40
2022/04/14 04:26:06;;;;;;;37.50;31.13;;;8.10;99.90;;;;;;5068954;28;20040;-41
2022/04/14 04:28:32;;;;;;;40.15;32.35;;;8.10;99.90;;;;;;5039685;28;20049;-41
2022/04/14 04:30:58;;;;;;;36.85;30.48;;;8.10;99.90;;;;;;5042277;28;20060;-41
2022/04/14 04:33:23;;;;;;;34.47;28.95;;;8.10;99.90;;;;;;5058925;28;20511;-41
2022/04/14 04:35:52;;;;;;;37.70;27.50;;;8.00;99.90;;;;;;5070999;28;20134;-41
2022/04/14 04:38:19;;;;;;;39.42;28.25;;;8.00;99.90;;;;;;5042903;28;20415;-41
2022/04/14 04:40:45;;;;;;;41.65;31.23;;;8.00;99.90;;;;;;5054287;28;20079;-40
2022/04/14 04:43:13;;;;;;;39.92;30.60;;;7.90;99.90;;;;;;5023755;28;20047;-40
2022/04/14 04:45:39;;;;;;;42.20;34.00;;;7.90;99.90;;;;;;5069896;28;20059;-41
2022/04/14 04:48:05;;;;;;;37.85;31.75;;;7.90;99.90;;;;;;5068323;28;20296;-40
2022/04/14 04:50:31;;;;;;;42.38;32.42;;;7.90;99.90;;;;;;5065416;28;20588;-41
2022/04/14 04:52:57;;;;;;;47.33;36.40;;;7.90;99.90;;;;;;5042516;28;20095;-41
2022/04/14 04:55:23;;;;;;;44.17;35.00;;;7.80;99.90;;;;;;5044372;28;20040;-41
2022/04/14 04:57:48;;;;;;;38.45;32.58;;;7.90;99.90;;;;;;5039363;28;20056;-40
2022/04/14 05:00:15;;;;;;;43.05;33.40;;;7.90;99.90;;;;;;5071052;28;20044;-41
2022/04/14 05:02:40;;;;;;;44.45;34.10;;;7.90;99.90;;;;;;5053676;28;20140;-41
2022/04/14 05:05:07;;;;;;;46.45;36.10;;;7.90;99.90;;;;;;5055146;28;20109;-40
2022/04/14 05:07:32;;;;;;;48.88;36.67;;;8.00;99.90;;;;;;5062302;28;20198;-41
2022/04/14 05:09:58;;;;;;;50.45;38.92;;;8.00;99.90;;;;;;5067848;28;20060;-41
2022/04/14 05:12:25;;;;;;;56.58;41.75;;;8.10;99.90;;;;;;5064042;28;20479;-41
2022/04/14 05:14:51;;;;;;;62.85;45.22;;;8.20;99.90;;;;;;5072051;28;20091;-40
2022/04/14 05:17:18;;;;;;;60.67;46.67;;;8.40;99.90;;;;;;5055929;28;20053;-41
2022/04/14 05:19:44;;;;;;;63.20;45.33;;;8.70;99.90;;;;;;5064179;28;20079;-40
2022/04/14 05:22:10;;;;;;;62.25;47.40;;;9.00;99.90;;;;;;5056243;28;20052;-41
2022/04/14 05:24:35;;;;;;;52.25;42.17;;;9.70;99.90;;;;;;5070581;28;20083;-41
2022/04/14 05:27:01;;;;;;;55.75;41.65;;;10.50;99.90;;;;;;5059513;28;20483;-41
2022/04/14 05:29:28;;;;;;;53.78;40.90;;;10.80;99.90;;;;;;5052089;28;20056;-42
2022/04/14 05:31:53;;;;;;;51.78;41.47;;;11.30;99.90;;;;;;5058672;28;20052;-43
2022/04/14 05:34:20;;;;;;;45.47;38.38;;;12.00;99.90;;;;;;5068180;28;20040;-41
2022/04/14 05:36:46;;;;;;;45.80;37.67;;;12.60;99.90;;;;;;5048520;28;20105;-41
2022/04/14 05:39:20;;;;;;;43.97;37.45;;;12.70;99.90;;;;;;5068960;28;20182;-42
2022/04/14 05:41:46;;;;;;;46.72;39.15;;;12.40;99.90;;;;;;5065791;28;20419;-42
2022/04/14 05:44:12;;;;;;;47.00;37.13;;;12.10;99.90;;;;;;5060751;28;20040;-41
2022/04/14 05:46:38;;;;;;;39.95;35.45;;;11.80;99.90;;;;;;5067109;28;20559;-41
2022/04/14 05:49:04;;;;;;;47.75;38.88;;;11.50;99.90;;;;;;5055866;28;20097;-43
2022/04/14 05:51:30;;;;;;;47.58;37.80;;;11.30;99.90;;;;;;5058042;28;20399;-41
2022/04/14 05:53:56;;;;;;;45.45;37.17;;;11.20;99.90;;;;;;5079163;28;20545;-42
2022/04/14 05:56:22;;;;;;;48.28;39.80;;;11.10;99.90;;;;;;5051579;28;20054;-42
2022/04/14 05:58:47;;;;;;;44.88;37.40;;;11.10;99.90;;;;;;5059841;28;20142;-41
2022/04/14 06:01:13;;;;;;;48.58;38.70;;;11.30;99.90;;;;;;5040403;28;20075;-43
2022/04/14 06:03:40;;;;;;;43.05;38.40;;;11.60;99.90;;;;;;5057279;28;20507;-41
2022/04/14 06:06:08;;;;;;;49.30;39.55;;;11.70;99.90;;;;;;5048189;28;20060;-41
2022/04/14 06:08:34;;;;;;;43.15;37.40;;;12.10;99.90;;;;;;5073475;28;20548;-41
2022/04/14 06:11:00;;;;;;;45.05;39.10;;;12.50;99.90;;;;;;5059903;28;20056;-42
2022/04/14 06:13:26;;;;;;;47.75;38.50;;;12.60;99.90;;;;;;5077834;28;20125;-41
2022/04/14 06:15:57;;;;;;;44.35;38.03;;;12.50;99.90;;;;;;5066514;28;20080;-42
2022/04/14 06:18:25;;;;;;;51.22;39.58;;;12.40;99.90;;;;;;5057312;28;20094;-42
2022/04/14 06:20:54;;;;;;;45.30;36.92;;;12.40;99.90;;;;;;5049284;28;20052;-41
2022/04/14 06:23:20;;;;;;;46.17;37.33;;;12.40;99.90;;;;;;5031195;28;20053;-42
2022/04/14 06:25:50;;;;;;;46.45;39.03;;;12.40;99.90;;;;;;5060914;28;20052;-40
2022/04/14 06:28:19;;;;;;;42.75;36.72;;;12.70;99.90;;;;;;5059456;28;20105;-41
2022/04/14 06:30:50;;;;;;;41.20;36.80;;;13.80;99.90;;;;;;5056442;28;20106;-42
2022/04/14 06:33:21;;;;;;;41.38;36.78;;;15.20;99.90;;;;;;5064497;28;20044;-42
2022/04/14 06:35:50;;;;;;;42.35;33.95;;;16.40;99.90;;;;;;5082729;28;20056;-41
2022/04/14 06:38:20;;;;;;;36.85;32.85;;;16.80;99.90;;;;;;5067060;28;20052;-43
2022/04/14 06:40:46;;;;;;;37.35;33.25;;;16.60;99.90;;;;;;5059269;28;20059;-44
2022/04/14 06:43:21;;;;;;;37.47;32.25;;;16.00;99.90;;;;;;5068016;28;20127;-43
2022/04/14 06:46:03;;;;;;;36.80;32.80;;;15.50;99.90;;;;;;5049105;28;20155;-44
2022/04/14 06:48:41;;;;;;;38.88;33.53;;;15.20;99.90;;;;;;5070799;28;20046;-44
2022/04/14 06:51:07;;;;;;;36.40;32.38;;;14.70;99.90;;;;;;5040836;28;20040;-42
2022/04/14 06:53:32;;;;;;;35.88;31.83;;;14.40;99.90;;;;;;5067372;28;20049;-43
2022/04/14 06:55:58;;;;;;;36.60;31.80;;;14.20;99.90;;;;;;5060003;28;20137;-42
2022/04/14 06:58:36;;;;;;;35.65;30.67;;;14.70;99.90;;;;;;5064149;28;20044;-43
2022/04/14 07:01:03;;;;;;;32.67;29.33;;;16.00;99.90;;;;;;5058641;28;20044;-43
2022/04/14 07:03:29;;;;;;;37.97;30.17;;;17.10;99.90;;;;;;5061526;28;20514;-42
2022/04/14 07:05:56;;;;;;;33.38;29.40;;;18.10;99.90;;;;;;5041588;28;20048;-44
2022/04/14 07:08:25;;;;;;;31.35;28.15;;;19.00;99.90;;;;;;5063152;28;20104;-43
2022/04/14 07:10:52;;;;;;;28.90;25.88;;;19.20;99.90;;;;;;5065116;28;20491;-43
2022/04/14 07:13:18;;;;;;;27.35;24.48;;;19.50;99.90;;;;;;5053061;28;20045;-44
2022/04/14 07:15:44;;;;;;;27.95;25.05;;;19.50;99.90;;;;;;5036739;28;20142;-43
2022/04/14 07:18:10;;;;;;;26.60;23.80;;;19.10;99.90;;;;;;5034224;28;20048;-43
2022/04/14 07:20:37;;;;;;;23.98;21.52;;;18.70;99.90;;;;;;5035055;28;20534;-42
2022/04/14 07:23:05;;;;;;;23.05;19.60;;;18.10;99.90;;;;;;5055050;28;20055;-43
2022/04/14 07:25:36;;;;;;;22.67;20.30;;;18.00;99.90;;;;;;5051078;28;20056;-43
2022/04/14 07:28:09;;;;;;;21.70;19.42;;;17.80;99.90;;;;;;5052803;28;20109;-45
2022/04/14 07:30:35;;;;;;;24.40;19.10;;;17.60;99.90;;;;;;5041614;28;20166;-43
2022/04/14 07:33:00;;;;;;;20.73;18.70;;;17.60;99.90;;;;;;5060881;28;20131;-44
2022/04/14 07:35:26;;;;;;;23.23;20.33;;;17.50;99.90;;;;;;5060447;28;20044;-43
2022/04/14 07:37:52;;;;;;;22.15;19.75;;;17.50;99.90;;;;;;5060783;28;20055;-43
2022/04/14 07:40:19;;;;;;;23.20;20.77;;;17.60;99.90;;;;;;5060703;28;20052;-46
2022/04/14 07:42:46;;;;;;;20.90;18.65;;;17.60;99.90;;;;;;5043186;28;20105;-44
2022/04/14 07:45:15;;;;;;;22.20;19.80;;;17.60;99.90;;;;;;5061708;28;20047;-42
2022/04/14 07:47:42;;;;;;;23.58;19.98;;;17.60;99.90;;;;;;5065213;28;20127;-43
2022/04/14 07:50:16;;;;;;;21.23;18.92;;;17.50;99.90;;;;;;5060411;28;20406;-45
2022/04/14 07:52:47;;;;;;;19.17;17.15;;;17.60;99.90;;;;;;5061134;28;20619;-44
2022/04/14 07:55:17;;;;;;;19.88;17.20;;;17.60;99.90;;;;;;5041536;28;20390;-44
2022/04/14 07:57:43;;;;;;;20.60;18.02;;;17.50;99.90;;;;;;5060596;28;20052;-46
2022/04/14 08:00:09;;;;;;;21.00;17.95;;;17.50;99.90;;;;;;5060065;28;20056;-44
2022/04/14 08:02:35;;;;;;;20.83;17.83;;;17.50;99.90;;;;;;5058942;28;20056;-45
2022/04/14 08:05:01;;;;;;;18.63;16.63;;;17.50;99.90;;;;;;5058980;28;20055;-43
2022/04/14 08:07:28;;;;;;;19.67;17.20;;;17.60;99.90;;;;;;5058945;28;20055;-44
2022/04/14 08:09:54;;;;;;;20.50;16.90;;;17.70;99.90;;;;;;5077500;28;20157;-45
2022/04/14 08:12:19;;;;;;;19.88;16.50;;;17.70;99.90;;;;;;5079530;28;20062;-46
2022/04/14 08:14:45;;;;;;;16.80;15.00;;;17.70;99.90;;;;;;5061615;28;20597;-43
2022/04/14 08:17:11;;;;;;;16.70;14.35;;;17.70;99.90;;;;;;5077892;28;20048;-44
2022/04/14 08:19:40;;;;;;;18.02;15.77;;;17.80;99.90;;;;;;5079460;28;20336;-44
2022/04/14 08:22:06;;;;;;;18.98;16.33;;;18.00;99.90;;;;;;5078662;28;20125;-45
2022/04/14 08:24:34;;;;;;;18.63;16.23;;;18.00;99.90;;;;;;5061864;28;20471;-46
2022/04/14 08:26:59;;;;;;;18.05;15.18;;;18.00;99.90;;;;;;5060353;28;20396;-44
2022/04/14 08:29:25;;;;;;;18.88;16.80;;;18.00;99.90;;;;;;5080200;28;20071;-44
2022/04/14 08:31:51;;;;;;;19.45;17.27;;;17.90;99.90;;;;;;5079365;28;20646;-44
2022/04/14 08:34:20;;;;;;;20.88;17.80;;;17.90;99.90;;;;;;5080154;28;20564;-45
2022/04/14 08:36:46;;;;;;;19.63;17.73;;;18.00;99.90;;;;;;5078378;28;20043;-44
2022/04/14 08:39:11;;;;;;;20.92;18.63;;;18.00;99.90;;;;;;5061171;28;20067;-45
2022/04/14 08:41:42;;;;;;;19.50;17.50;;;18.10;99.90;;;;;;5079786;28;20098;-45
2022/04/14 08:44:10;;;;;;;21.33;19.13;;;18.20;99.90;;;;;;5080143;28;20524;-43
2022/04/14 08:46:38;;;;;;;21.33;19.33;;;18.20;99.90;;;;;;5062802;28;20040;-44
2022/04/14 08:49:04;;;;;;;19.90;17.90;;;18.20;99.90;;;;;;5082576;28;20121;-44
2022/04/14 08:51:38;;;;;;;21.10;18.05;;;18.20;99.90;;;;;;5062578;28;20655;-45
2022/04/14 08:54:03;;;;;;;19.48;17.42;;;18.20;99.90;;;;;;5067771;28;20125;-44
2022/04/14 08:56:30;;;;;;;18.08;16.17;;;18.30;99.90;;;;;;5085153;28;20134;-44
2022/04/14 08:58:56;;;;;;;17.70;15.90;;;18.40;99.90;;;;;;5084541;28;20096;-45
2022/04/14 09:01:26;;;;;;;17.77;15.90;;;18.30;99.90;;;;;;5084135;28;20039;-45
2022/04/14 09:03:58;;;;;;;17.52;15.68;;;18.40;99.90;;;;;;5084241;28;20055;-43
2022/04/14 09:06:31;;;;;;;16.67;14.85;;;18.40;99.90;;;;;;5051410;28;20141;-45
2022/04/14 09:09:00;;;;;;;13.90;12.45;;;18.30;99.90;;;;;;5082572;28;20048;-51
2022/04/14 09:11:28;;;;;;;16.35;14.63;;;18.50;99.90;;;;;;5082362;28;20555;-45
2022/04/14 09:13:54;;;;;;;17.83;14.05;;;18.40;99.90;;;;;;5076610;28;20051;-43
2022/04/14 09:16:38;;;;;;;14.05;11.70;;;18.50;99.90;;;;;;5066750;28;20379;-46
2022/04/14 09:19:04;;;;;;;15.82;13.75;;;18.70;99.90;;;;;;5062348;28;20371;-47
2022/04/14 09:21:34;;;;;;;15.75;14.05;;;18.70;99.90;;;;;;5074568;28;20074;-46
2022/04/14 09:23:59;;;;;;;13.30;10.85;;;18.70;99.90;;;;;;5077727;28;20048;-44
2022/04/14 09:26:26;;;;;;;13.80;11.57;;;18.70;99.90;;;;;;5079216;28;20043;-45
2022/04/14 09:29:04;;;;;;;15.70;11.68;;;18.60;99.90;;;;;;5084456;28;20043;-44
2022/04/14 09:31:44;;;;;;;13.45;11.90;;;18.60;99.90;;;;;;5079674;28;20043;-46
2022/04/14 09:34:17;;;;;;;14.48;12.88;;;18.60;99.90;;;;;;5064665;28;20538;-44
2022/04/14 09:37:20;;;;;;;14.57;12.60;;;18.60;99.90;;;;;;5084507;28;20593;-44
2022/04/14 09:40:02;;;;;;;14.43;11.20;;;18.80;99.90;;;;;;4972564;28;20058;-44
2022/04/14 09:42:30;;;;;;;16.38;12.85;;;19.00;99.90;;;;;;4963324;28;20057;-45
2022/04/14 09:45:25;;;;;;;14.10;12.60;;;19.00;99.90;;;;;;4976696;28;20619;-45
2022/04/14 09:47:53;;;;;;;15.15;11.88;;;18.90;99.90;;;;;;4962261;28;20058;-45
2022/04/14 09:50:39;;;;;;;13.52;12.23;;;19.00;99.90;;;;;;4978966;28;20058;-44
2022/04/14 09:53:07;;;;;;;15.35;11.27;;;18.90;99.90;;;;;;4948446;28;20476;-44
2022/04/14 09:55:35;;;;;;;17.30;11.18;;;18.80;99.90;;;;;;4947867;28;20050;-45
2022/04/14 09:58:09;;;;;;;12.65;10.35;;;18.70;99.90;;;;;;4978576;28;20058;-45
2022/04/14 10:00:57;;;;;;;12.43;10.25;;;18.80;99.90;;;;;;4977249;28;20488;-45
2022/04/14 10:03:24;;;;;;;15.85;10.20;;;19.00;99.90;;;;;;4974742;28;20125;-45
2022/04/14 10:05:55;;;;;;;10.40;8.38;;;19.00;99.90;;;;;;4978320;28;20474;-44
2022/04/14 10:08:24;;;;;;;12.43;9.73;;;19.20;99.90;;;;;;4968954;28;20367;-45
2022/04/14 10:11:07;;;;;;;12.82;9.63;;;19.30;99.90;;;;;;4975320;28;20058;-44
2022/04/14 10:13:33;;;;;;;;;;;19.30;99.90;;;;;;4978762;28;20050;-44
2022/04/14 10:15:59;;;;;;;12.68;10.32;;;19.20;99.90;;;;;;5005964;28;19924;-44
2022/04/14 10:18:25;;;;;;;12.32;8.75;;;19.10;99.90;;;;;;5079363;28;20117;-44
2022/04/14 10:20:51;;;;;;;13.48;9.75;;;19.10;99.90;;;;;;5080008;28;23676;-44
2022/04/14 10:23:17;;;;;;;12.23;9.23;;;19.20;99.90;;;;;;5076197;28;20557;-44
2022/04/14 10:25:43;;;;;;;8.93;6.88;;;19.20;99.90;;;;;;5061293;28;20087;-44
2022/04/14 10:28:17;;;;;;;11.73;7.18;;;19.20;99.90;;;;;;5084331;28;20083;-44
2022/04/14 10:30:52;;;;;;;10.80;7.43;;;19.10;99.90;;;;;;5054723;28;20079;-44
2022/04/14 10:33:20;;;;;;;7.13;5.95;;;19.20;99.90;;;;;;5061549;28;20104;-43
2022/04/14 10:35:46;;;;;;;9.23;5.95;;;19.20;99.90;;;;;;5078239;28;20572;-44
2022/04/14 10:38:15;;;;;;;9.40;6.38;;;19.20;99.90;;;;;;5058749;28;20160;-43
2022/04/14 10:40:57;;;;;;;7.75;5.55;;;19.10;99.90;;;;;;5061594;28;20665;-42
2022/04/14 10:43:24;;;;;;;8.88;5.05;;;19.10;99.90;;;;;;5059879;28;20468;-45
2022/04/14 10:45:55;;;;;;;6.05;4.43;;;19.10;99.90;;;;;;5057775;28;20044;-43
2022/04/14 10:48:35;;;;;;;8.27;4.22;;;19.20;99.90;;;;;;5075630;28;20131;-43
2022/04/14 10:51:24;;;;;;;7.40;5.00;;;19.20;99.90;;;;;;5067717;28;20513;-42
2022/04/14 10:54:05;;;;;;;8.82;5.22;;;19.20;99.90;;;;;;5075583;28;20059;-43
2022/04/14 10:56:33;;;;;;;8.70;5.72;;;19.20;99.90;;;;;;5078507;28;20525;-43
2022/04/14 10:59:16;;;;;;;8.60;6.00;;;19.20;99.90;;;;;;5080717;28;20048;-44
2022/04/14 11:01:51;;;;;;;8.95;6.15;;;19.20;99.90;;;;;;5050396;28;20063;-43
2022/04/14 11:04:33;;;;;;;10.13;5.72;;;19.10;99.90;;;;;;5079315;28;20134;-44
2022/04/14 11:07:01;;;;;;;11.52;7.45;;;19.10;99.90;;;;;;5080349;28;20048;-43
2022/04/14 11:09:42;;;;;;;10.95;8.48;;;19.30;99.90;;;;;;5049773;28;20056;-42
2022/04/14 11:12:12;;;;;;;10.57;8.32;;;19.20;99.90;;;;;;5056267;28;20048;-43
2022/04/14 11:15:05;;;;;;;11.10;8.48;;;19.10;99.90;;;;;;5045213;28;20489;-43
2022/04/14 11:17:48;;;;;;;9.82;7.80;;;18.80;99.90;;;;;;5054695;28;20048;-42
2022/04/14 11:20:16;;;;;;;;;;;18.90;99.90;;;;;;5051029;28;20063;-43
2022/04/14 11:23:06;;;;;;;10.05;7.25;;;18.90;99.90;;;;;;5057126;28;19924;-43
2022/04/14 11:28:30;;;;;;;8.75;6.03;;;19.00;99.90;;;;;;5059038;28;20102;-43
2022/04/14 11:31:02;;;;;;;7.65;5.22;;;19.00;99.90;;;;;;5053221;28;20544;-43
2022/04/14 11:33:28;;;;;;;7.15;5.55;;;18.90;99.90;;;;;;5059274;28;20084;-42
2022/04/14 11:36:05;;;;;;;9.20;5.55;;;18.90;99.90;;;;;;5060067;28;20151;-43
2022/04/14 11:38:57;;;;;;;10.65;6.22;;;19.00;99.90;;;;;;5051282;28;20044;-43
2022/04/14 11:41:41;;;;;;;11.75;7.40;;;19.10;99.90;;;;;;5052266;28;20430;-43
2022/04/14 11:44:15;;;;;;;10.07;7.20;;;19.00;99.90;;;;;;5053525;28;20037;-42
2022/04/14 11:46:44;;;;;;;9.32;7.55;;;18.90;99.90;;;;;;5047307;28;20063;-43
2022/04/14 11:49:12;;;;;;;10.98;8.38;;;18.90;99.90;;;;;;5059972;28;20131;-43
2022/04/14 11:51:42;;;;;;;10.98;8.57;;;19.10;99.90;;;;;;5061760;28;20083;-43
2022/04/14 11:54:11;;;;;;;11.50;8.68;;;19.20;99.90;;;;;;5073353;28;20377;-42
2022/04/14 11:56:38;;;;;;;12.40;9.35;;;19.30;99.90;;;;;;5059213;28;20048;-45
2022/04/14 11:59:08;;;;;;;10.70;8.27;;;19.20;99.90;;;;;;5060037;28;20051;-43
2022/04/14 12:01:46;;;;;;;12.18;8.07;;;19.30;99.90;;;;;;5058633;28;20605;-44
2022/04/14 12:04:13;;;;;;;10.68;7.97;;;19.40;99.90;;;;;;5059754;28;20524;-44
2022/04/14 12:06:38;;;;;;;12.30;8.13;;;19.30;99.90;;;;;;5059296;28;20139;-42
2022/04/14 12:09:04;;;;;;;11.90;8.93;;;19.40;99.90;;;;;;5055312;28;20062;-43
2022/04/14 12:11:30;;;;;;;12.63;8.70;;;19.40;99.90;;;;;;5069885;28;20063;-44
2022/04/14 12:13:56;;;;;;;11.35;7.95;;;19.30;99.90;;;;;;5078876;28;20099;-43
2022/04/14 12:16:22;;;;;;;9.35;8.00;;;19.30;99.90;;;;;;5078974;28;20391;-42
2022/04/14 12:18:51;;;;;;;8.77;7.38;;;19.30;99.90;;;;;;5079962;28;20051;-43
2022/04/14 12:21:22;;;;;;;10.27;7.22;;;19.30;99.90;;;;;;5071780;28;20051;-43
2022/04/14 12:23:50;;;;;;;10.80;6.18;;;19.40;99.90;;;;;;5072702;28;20044;-45
2022/04/14 12:26:17;;;;;;;10.10;6.65;;;19.50;99.90;;;;;;5077908;28;20127;-42
2022/04/14 12:28:45;;;;;;;10.35;5.53;;;19.70;99.90;;;;;;5082544;28;20581;-44
2022/04/14 12:31:17;;;;;;;8.13;4.55;;;19.90;99.90;;;;;;5077569;28;20083;-43
2022/04/14 12:33:56;;;;;;;6.78;5.07;;;19.90;99.90;;;;;;5081262;28;20052;-42
2022/04/14 12:36:32;;;;;;;8.77;5.00;;;20.10;99.90;;;;;;5076295;28;20059;-46
2022/04/14 12:38:58;;;;;;;8.25;5.40;;;20.10;99.90;;;;;;5063337;28;20127;-44
2022/04/14 12:41:24;;;;;;;7.95;4.72;;;20.10;99.90;;;;;;5063832;28;20086;-42